createdAt,value
2022-08-17T00:01:52.146Z,18.62
2022-08-17T00:04:21.275Z,18.26
2022-08-17T00:06:49.686Z,18.25
2022-08-17T00:09:19.371Z,18.32
2022-08-17T00:12:35.081Z,18.29
2022-08-17T00:14:36.446Z,18.17
2022-08-17T00:17:07.272Z,18.26
2022-08-17T00:19:34.613Z,18.12
2022-08-17T00:22:33.253Z,18.07
2022-08-17T00:24:50.830Z,18.09
2022-08-17T00:27:19.552Z,18.05
2022-08-17T00:29:46.967Z,18.06
2022-08-17T00:33:10.957Z,17.94
2022-08-17T00:35:06.818Z,17.80
2022-08-17T00:37:34.563Z,17.82
2022-08-17T00:40:02.123Z,17.77
2022-08-17T00:42:31.311Z,17.77
2022-08-17T00:44:59.542Z,17.67
2022-08-17T00:47:26.857Z,17.60
2022-08-17T00:49:54.316Z,17.74
2022-08-17T00:52:28.792Z,17.68
2022-08-17T00:54:57.093Z,17.61
2022-08-17T00:57:36.730Z,17.60
2022-08-17T01:00:16.007Z,17.62
2022-08-17T01:02:47.263Z,17.53
2022-08-17T01:05:18.428Z,17.54
2022-08-17T01:07:48.036Z,17.63
2022-08-17T01:10:59.966Z,17.70
2022-08-17T01:13:04.181Z,17.60
2022-08-17T01:15:33.711Z,17.23
2022-08-17T01:18:01.034Z,17.04
2022-08-17T01:20:29.101Z,17.15
2022-08-17T01:22:56.697Z,17.21
2022-08-17T01:25:24.665Z,17.25
2022-08-17T01:27:52.627Z,17.01
2022-08-17T01:30:56.523Z,16.98
2022-08-17T01:33:11.552Z,16.96
2022-08-17T01:35:40.006Z,16.93
2022-08-17T01:38:09.631Z,17.12
2022-08-17T01:40:43.329Z,17.04
2022-08-17T01:43:16.316Z,17.21
2022-08-17T01:45:46.560Z,17.08
2022-08-17T01:48:15.596Z,17.04
2022-08-17T01:50:44.680Z,16.84
2022-08-17T01:53:25.294Z,17.06
2022-08-17T01:55:57.920Z,16.81
2022-08-17T01:58:25.425Z,16.84
2022-08-17T02:01:00.434Z,16.75
2022-08-17T02:03:30.449Z,16.74
2022-08-17T02:05:57.954Z,16.80
2022-08-17T02:08:37.240Z,16.88
2022-08-17T02:11:11.244Z,16.73
2022-08-17T02:13:39.795Z,16.79
2022-08-17T02:16:08.009Z,16.74
2022-08-17T02:18:35.373Z,16.82
2022-08-17T02:21:03.493Z,16.83
2022-08-17T02:23:33.553Z,16.76
2022-08-17T02:26:01.487Z,16.40
2022-08-17T02:28:29.708Z,16.34
2022-08-17T02:31:02.155Z,16.47
2022-08-17T02:33:43.214Z,16.43
2022-08-17T02:36:13.342Z,16.32
2022-08-17T02:38:42.124Z,16.42
2022-08-17T02:41:09.862Z,16.44
2022-08-17T02:43:37.678Z,16.23
2022-08-17T02:46:05.045Z,16.13
2022-08-17T02:48:32.368Z,16.22
2022-08-17T02:51:01.114Z,16.30
2022-08-17T02:53:35.592Z,16.11
2022-08-17T02:56:04.506Z,16.08
2022-08-17T02:58:35.836Z,16.16
2022-08-17T03:01:09.047Z,16.19
2022-08-17T03:03:37.662Z,16.15
2022-08-17T03:06:06.325Z,16.07
2022-08-17T03:08:34.347Z,15.91
2022-08-17T03:11:01.889Z,16.04
2022-08-17T03:13:31.065Z,15.99
2022-08-17T03:15:59.131Z,15.92
2022-08-17T03:18:28.196Z,15.64
2022-08-17T03:21:00.042Z,15.75
2022-08-17T03:23:29.560Z,15.97
2022-08-17T03:25:59.026Z,16.02
2022-08-17T03:28:27.603Z,16.03
2022-08-17T03:30:55.091Z,15.91
2022-08-17T03:33:23.181Z,15.99
2022-08-17T03:35:50.612Z,15.72
2022-08-17T03:38:18.592Z,15.87
2022-08-17T03:40:56.792Z,15.82
2022-08-17T03:43:30.252Z,15.87
2022-08-17T03:46:27.076Z,15.95
2022-08-17T03:49:26.966Z,15.79
2022-08-17T03:52:14.227Z,15.91
2022-08-17T03:55:01.588Z,15.88
2022-08-17T03:57:30.515Z,15.85
2022-08-17T03:59:58.456Z,15.52
2022-08-17T04:02:32.079Z,15.35
2022-08-17T04:05:00.657Z,15.64
2022-08-17T04:07:30.703Z,15.67
2022-08-17T04:09:59.625Z,15.64
2022-08-17T04:12:31.254Z,15.72
2022-08-17T04:14:59.309Z,15.70
2022-08-17T04:17:29.374Z,15.59
2022-08-17T04:19:57.254Z,15.68
2022-08-17T04:22:32.680Z,15.49
2022-08-17T04:25:15.021Z,15.54
2022-08-17T04:27:42.802Z,15.46
2022-08-17T04:30:11.116Z,15.68
2022-08-17T04:33:04.973Z,15.66
2022-08-17T04:35:50.243Z,15.83
2022-08-17T04:38:20.159Z,15.58
2022-08-17T04:41:07.276Z,15.89
2022-08-17T04:43:36.592Z,16.09
2022-08-17T04:46:07.859Z,16.14
2022-08-17T04:48:38.836Z,16.13
2022-08-17T04:51:16.712Z,16.11
2022-08-17T04:53:54.290Z,16.06
2022-08-17T04:56:26.022Z,16.14
2022-08-17T04:58:56.214Z,16.28
2022-08-17T05:01:26.348Z,16.31
2022-08-17T05:03:56.674Z,16.34
2022-08-17T05:06:24.613Z,16.58
2022-08-17T05:08:52.369Z,16.33
2022-08-17T05:11:20.086Z,16.44
2022-08-17T05:13:50.578Z,15.62
2022-08-17T05:16:19.740Z,15.64
2022-08-17T05:18:47.076Z,16.17
2022-08-17T05:21:15.844Z,16.41
2022-08-17T05:23:44.345Z,16.43
2022-08-17T05:26:25.749Z,16.73
2022-08-17T05:28:57.092Z,16.86
2022-08-17T05:31:28.821Z,16.76
2022-08-17T05:33:56.466Z,16.65
2022-08-17T05:36:42.079Z,16.86
2022-08-17T05:39:15.790Z,17.12
2022-08-17T05:41:46.939Z,17.22
2022-08-17T05:44:14.715Z,17.42
2022-08-17T05:46:47.826Z,17.17
2022-08-17T05:49:18.348Z,17.48
2022-08-17T05:52:18.873Z,17.80
2022-08-17T05:55:04.671Z,17.95
2022-08-17T05:57:53.318Z,18.02
2022-08-17T06:00:31.168Z,18.26
2022-08-17T06:03:14.015Z,18.59
2022-08-17T06:05:53.259Z,18.95
2022-08-17T06:08:34.343Z,19.09
2022-08-17T06:11:43.656Z,19.16
2022-08-17T06:14:30.293Z,19.26
2022-08-17T06:17:04.802Z,19.38
2022-08-17T06:19:41.486Z,19.64
2022-08-17T06:22:13.779Z,19.78
2022-08-17T06:24:48.316Z,19.98
2022-08-17T06:27:40.892Z,20.08
2022-08-17T06:30:15.488Z,20.32
2022-08-17T06:32:46.325Z,20.22
2022-08-17T06:35:31.791Z,20.36
2022-08-17T06:38:37.978Z,20.49
2022-08-17T06:41:15.395Z,20.75
2022-08-17T06:44:01.491Z,20.88
2022-08-17T06:46:37.386Z,20.90
2022-08-17T06:49:28.759Z,21.10
2022-08-17T06:52:46.106Z,21.37
2022-08-17T06:55:18.087Z,21.52
2022-08-17T06:57:52.817Z,21.77
2022-08-17T07:00:24.157Z,22.06
2022-08-17T07:03:01.165Z,22.28
2022-08-17T07:05:54.042Z,22.36
2022-08-17T07:08:29.698Z,22.63
2022-08-17T07:11:03.781Z,22.77
2022-08-17T07:14:03.784Z,22.91
2022-08-17T07:17:03.072Z,23.09
2022-08-17T07:19:33.137Z,23.34
2022-08-17T07:22:18.720Z,23.39
2022-08-17T07:24:54.073Z,23.59
2022-08-17T07:27:38.802Z,23.67
2022-08-17T07:30:23.956Z,23.86
2022-08-17T07:32:54.803Z,23.89
2022-08-17T07:35:37.579Z,24.01
2022-08-17T07:38:25.186Z,24.09
2022-08-17T07:40:58.126Z,24.38
2022-08-17T07:43:29.479Z,24.19
2022-08-17T07:46:17.853Z,24.40
2022-08-17T07:48:52.773Z,24.58
2022-08-17T07:51:39.219Z,24.68
2022-08-17T07:54:15.843Z,24.89
2022-08-17T07:56:53.903Z,25.13
2022-08-17T07:59:33.417Z,25.14
2022-08-17T08:02:31.813Z,25.23
2022-08-17T08:05:09.028Z,25.36
2022-08-17T08:07:55.147Z,25.51
2022-08-17T08:10:31.287Z,25.74
2022-08-17T08:13:13.022Z,25.69
2022-08-17T08:15:54.134Z,25.85
2022-08-17T08:18:54.639Z,25.87
2022-08-17T08:21:44.755Z,26.02
2022-08-17T08:24:59.493Z,26.10
2022-08-17T08:27:36.717Z,26.20
2022-08-17T08:30:09.991Z,26.28
2022-08-17T08:32:54.241Z,26.46
2022-08-17T08:35:44.550Z,26.55
2022-08-17T08:38:34.659Z,26.73
2022-08-17T08:41:08.541Z,26.84
2022-08-17T08:43:52.777Z,27.03
2022-08-17T08:47:00.009Z,27.27
2022-08-17T08:50:03.378Z,27.49
2022-08-17T08:53:03.883Z,27.24
2022-08-17T08:55:55.246Z,27.33
2022-08-17T08:58:41.715Z,27.46
2022-08-17T09:01:38.285Z,27.31
2022-08-17T09:04:24.807Z,27.43
2022-08-17T09:07:08.778Z,27.74
2022-08-17T09:09:50.987Z,27.90
2022-08-17T09:12:33.464Z,27.75
2022-08-17T09:15:13.439Z,27.92
2022-08-17T09:18:59.792Z,27.96
2022-08-17T09:21:18.244Z,28.06
2022-08-17T09:23:52.266Z,28.30
2022-08-17T09:26:26.008Z,28.19
2022-08-17T09:29:01.657Z,28.48
2022-08-17T09:31:47.093Z,28.66
2022-08-17T09:34:24.920Z,28.93
2022-08-17T09:37:30.035Z,29.15
2022-08-17T09:40:03.328Z,29.18
2022-08-17T09:42:38.151Z,29.03
2022-08-17T09:45:31.657Z,28.95
2022-08-17T09:48:08.160Z,29.01
2022-08-17T09:51:03.139Z,29.16
2022-08-17T09:53:36.111Z,29.48
2022-08-17T09:56:32.014Z,29.62
2022-08-17T09:59:17.617Z,29.16
2022-08-17T10:02:30.427Z,29.02
2022-08-17T10:05:15.903Z,29.18
2022-08-17T10:07:57.579Z,29.54
2022-08-17T10:11:00.646Z,29.64
2022-08-17T10:13:31.429Z,29.85
2022-08-17T10:16:04.625Z,29.90
2022-08-17T10:19:21.638Z,29.93
2022-08-17T10:22:14.913Z,29.67
2022-08-17T10:25:24.837Z,29.66
2022-08-17T10:28:04.894Z,29.05
2022-08-17T10:30:37.396Z,29.52
2022-08-17T10:33:26.123Z,29.85
2022-08-17T10:36:10.549Z,30.03
2022-08-17T10:38:46.940Z,30.21
2022-08-17T10:41:21.506Z,30.20
2022-08-17T10:44:37.374Z,30.24
2022-08-17T10:47:08.232Z,29.99
2022-08-17T10:49:38.729Z,29.86
2022-08-17T10:52:30.693Z,29.37
2022-08-17T10:55:01.316Z,30.07
2022-08-17T10:57:34.533Z,30.14
2022-08-17T11:00:26.983Z,30.51
2022-08-17T11:02:57.667Z,30.28
2022-08-17T11:05:50.540Z,30.38
2022-08-17T11:09:04.277Z,30.52
2022-08-17T11:11:47.473Z,30.69
2022-08-17T11:14:36.871Z,30.61
2022-08-17T11:17:43.425Z,30.69
2022-08-17T11:20:32.281Z,30.52
2022-08-17T11:23:37.686Z,30.58
2022-08-17T11:26:38.891Z,30.78
2022-08-17T11:29:18.478Z,30.79
2022-08-17T11:32:03.188Z,30.97
2022-08-17T11:34:32.343Z,31.21
2022-08-17T11:37:19.391Z,31.05
2022-08-17T11:40:22.089Z,30.97
2022-08-17T11:43:01.427Z,31.31
2022-08-17T11:45:41.369Z,31.53
2022-08-17T11:48:46.494Z,31.42
2022-08-17T11:51:35.433Z,31.74
2022-08-17T11:54:32.440Z,31.77
2022-08-17T11:57:00.708Z,31.76
2022-08-17T11:59:34.068Z,31.98
2022-08-17T12:02:05.120Z,31.72
2022-08-17T12:04:35.936Z,31.41
2022-08-17T12:07:21.072Z,31.38
2022-08-17T12:09:51.168Z,31.35
2022-08-17T12:12:36.114Z,31.33
2022-08-17T12:15:12.058Z,31.36
2022-08-17T12:17:42.649Z,31.37
2022-08-17T12:20:28.023Z,31.38
2022-08-17T12:23:17.192Z,31.50
2022-08-17T12:25:52.388Z,31.18
2022-08-17T12:28:32.411Z,31.54
2022-08-17T12:31:03.734Z,31.96
2022-08-17T12:33:31.326Z,32.08
2022-08-17T12:36:08.866Z,31.50
2022-08-17T12:38:38.344Z,31.38
2022-08-17T12:41:28.510Z,31.65
2022-08-17T12:44:12.457Z,31.44
2022-08-17T12:47:21.058Z,31.30
2022-08-17T12:49:53.174Z,31.25
2022-08-17T12:52:27.695Z,30.98
2022-08-17T12:55:05.851Z,31.39
2022-08-17T12:57:39.762Z,31.15
2022-08-17T13:00:20.166Z,31.24
2022-08-17T13:03:12.734Z,31.17
2022-08-17T13:06:06.450Z,30.95
2022-08-17T13:08:38.274Z,31.23
2022-08-17T13:11:09.598Z,30.95
2022-08-17T13:13:39.885Z,30.96
2022-08-17T13:16:20.768Z,31.30
2022-08-17T13:19:04.346Z,31.50
2022-08-17T13:21:33.806Z,31.76
2022-08-17T13:24:18.547Z,31.85
2022-08-17T13:26:50.974Z,32.04
2022-08-17T13:29:25.832Z,32.22
2022-08-17T13:32:15.243Z,32.04
2022-08-17T13:35:14.105Z,31.77
2022-08-17T13:37:41.422Z,31.95
2022-08-17T13:40:10.284Z,32.11
2022-08-17T13:42:51.458Z,32.05
2022-08-17T13:45:36.623Z,32.04
2022-08-17T13:48:13.953Z,31.95
2022-08-17T13:51:04.740Z,31.94
2022-08-17T13:53:38.003Z,32.05
2022-08-17T13:56:41.743Z,32.06
2022-08-17T13:59:11.602Z,32.12
2022-08-17T14:01:49.647Z,31.97
2022-08-17T14:04:30.172Z,31.78
2022-08-17T14:06:59.372Z,31.77
2022-08-17T14:09:36.981Z,32.01
2022-08-17T14:12:10.774Z,32.21
2022-08-17T14:14:39.669Z,32.11
2022-08-17T14:17:07.862Z,32.10
2022-08-17T14:19:36.565Z,32.55
2022-08-17T14:22:09.021Z,32.52
2022-08-17T14:24:44.624Z,32.53
2022-08-17T14:27:12.775Z,32.06
2022-08-17T14:29:41.464Z,32.29
2022-08-17T14:32:20.387Z,32.38
2022-08-17T14:34:49.791Z,32.42
2022-08-17T14:37:18.982Z,32.56
2022-08-17T14:39:46.686Z,32.77
2022-08-17T14:42:15.699Z,32.84
2022-08-17T14:44:43.206Z,32.89
2022-08-17T14:47:16.003Z,33.16
2022-08-17T14:49:43.918Z,33.43
2022-08-17T14:52:21.017Z,33.55
2022-08-17T14:54:53.047Z,34.14
2022-08-17T14:57:33.354Z,34.90
2022-08-17T15:00:03.059Z,35.85
2022-08-17T15:02:31.255Z,36.57
2022-08-17T15:05:04.902Z,36.82
2022-08-17T15:07:32.680Z,35.94
2022-08-17T15:10:02.560Z,36.29
2022-08-17T15:12:33.731Z,37.18
2022-08-17T15:15:06.636Z,36.67
2022-08-17T15:17:44.961Z,36.43
2022-08-17T15:20:19.868Z,37.09
2022-08-17T15:22:55.539Z,36.91
2022-08-17T15:25:26.388Z,37.00
2022-08-17T15:27:56.011Z,38.11
2022-08-17T15:30:25.921Z,38.17
2022-08-17T15:32:55.043Z,37.86
2022-08-17T15:35:27.395Z,38.05
2022-08-17T15:37:58.756Z,37.80
2022-08-17T15:40:36.650Z,38.08
2022-08-17T15:43:22.051Z,38.33
2022-08-17T15:46:05.153Z,38.13
2022-08-17T15:48:42.100Z,38.18
2022-08-17T15:51:20.918Z,38.37
2022-08-17T15:53:51.994Z,37.57
2022-08-17T15:56:19.493Z,37.42
2022-08-17T15:58:48.704Z,36.78
2022-08-17T16:02:17.118Z,37.14
2022-08-17T16:04:30.666Z,36.97
2022-08-17T16:06:57.601Z,36.74
2022-08-17T16:09:25.208Z,35.76
2022-08-17T16:11:55.670Z,36.39
2022-08-17T16:14:34.252Z,35.84
2022-08-17T16:17:05.351Z,36.11
2022-08-17T16:19:53.012Z,35.77
2022-08-17T16:22:33.211Z,35.46
2022-08-17T16:25:07.936Z,34.61
2022-08-17T16:27:35.751Z,33.36
2022-08-17T16:30:05.809Z,33.35
2022-08-17T16:32:33.263Z,33.33
2022-08-17T16:35:03.408Z,33.24
2022-08-17T16:37:31.147Z,33.89
2022-08-17T16:40:02.147Z,34.07
2022-08-17T16:42:32.694Z,34.00
2022-08-17T16:45:08.948Z,33.63
2022-08-17T16:47:37.977Z,33.38
2022-08-17T16:50:07.246Z,32.72
2022-08-17T16:52:34.814Z,31.81
2022-08-17T16:55:04.294Z,31.29
2022-08-17T16:57:32.187Z,30.74
2022-08-17T16:59:59.587Z,30.35
2022-08-17T17:02:33.773Z,29.85
2022-08-17T17:05:45.327Z,29.49
2022-08-17T17:08:33.474Z,29.00
2022-08-17T17:11:09.329Z,28.55
2022-08-17T17:14:02.258Z,28.43
2022-08-17T17:16:29.653Z,28.23
2022-08-17T17:19:12.857Z,27.92
2022-08-17T17:21:49.176Z,27.75
2022-08-17T17:24:49.961Z,27.66
2022-08-17T17:27:43.313Z,27.39
2022-08-17T17:30:24.340Z,27.12
2022-08-17T17:33:36.387Z,26.78
2022-08-17T17:36:29.333Z,26.70
2022-08-17T17:39:04.100Z,26.46
2022-08-17T17:42:07.866Z,26.35
2022-08-17T17:44:41.231Z,26.19
2022-08-17T17:47:10.153Z,26.00
2022-08-17T17:49:41.912Z,25.71
2022-08-17T17:52:26.334Z,25.55
2022-08-17T17:55:23.298Z,25.45
2022-08-17T17:58:00.947Z,25.22
2022-08-17T18:00:58.673Z,25.20
2022-08-17T18:03:45.098Z,25.06
2022-08-17T18:06:30.023Z,24.75
2022-08-17T18:09:19.350Z,24.71
2022-08-17T18:12:27.059Z,24.66
2022-08-17T18:15:14.179Z,24.63
2022-08-17T18:18:15.003Z,24.46
2022-08-17T18:20:53.884Z,24.40
2022-08-17T18:23:28.205Z,24.28
2022-08-17T18:25:57.203Z,24.18
2022-08-17T18:28:29.730Z,24.30
2022-08-17T18:31:21.928Z,24.18
2022-08-17T18:33:52.698Z,24.09
2022-08-17T18:36:33.451Z,23.95
2022-08-17T18:39:19.203Z,23.82
2022-08-17T18:41:51.247Z,23.63
2022-08-17T18:44:31.443Z,23.60
2022-08-17T18:47:13.943Z,23.50
2022-08-17T18:49:44.624Z,23.47
2022-08-17T18:52:32.235Z,23.37
2022-08-17T18:55:02.574Z,23.21
2022-08-17T18:57:35.194Z,23.09
2022-08-17T19:00:11.573Z,23.03
2022-08-17T19:03:02.195Z,23.13
2022-08-17T19:05:38.087Z,23.14
2022-08-17T19:08:27.601Z,23.11
2022-08-17T19:10:59.931Z,22.83
2022-08-17T19:13:42.958Z,22.67
2022-08-17T19:16:30.006Z,22.67
2022-08-17T19:19:10.101Z,22.75
2022-08-17T19:21:47.473Z,22.42
2022-08-17T19:24:22.122Z,22.59
2022-08-17T19:27:34.731Z,22.47
2022-08-17T19:30:13.769Z,22.49
2022-08-17T19:32:42.951Z,22.65
2022-08-17T19:35:17.376Z,22.40
2022-08-17T19:38:01.001Z,22.21
2022-08-17T19:40:54.520Z,22.30
2022-08-17T19:43:28.653Z,22.07
2022-08-17T19:46:18.184Z,22.08
2022-08-17T19:48:45.918Z,22.00
2022-08-17T19:51:41.153Z,21.93
2022-08-17T19:54:28.351Z,21.94
2022-08-17T19:57:06.821Z,21.93
2022-08-17T20:00:12.617Z,21.73
2022-08-17T20:02:47.239Z,21.71
2022-08-17T20:05:21.072Z,21.62
2022-08-17T20:07:53.133Z,21.44
2022-08-17T20:10:40.796Z,21.17
2022-08-17T20:13:13.998Z,21.26
2022-08-17T20:15:43.833Z,21.41
2022-08-17T20:18:21.238Z,21.40
2022-08-17T20:20:58.792Z,21.48
2022-08-17T20:23:30.895Z,20.80
2022-08-17T20:26:26.600Z,20.67
2022-08-17T20:29:14.369Z,20.66
2022-08-17T20:31:57.357Z,20.91
2022-08-17T20:34:33.604Z,20.59
2022-08-17T20:37:28.516Z,20.71
2022-08-17T20:39:56.427Z,20.83
2022-08-17T20:42:23.916Z,20.85
2022-08-17T20:45:13.376Z,20.77
2022-08-17T20:48:07.299Z,20.86
2022-08-17T20:50:36.920Z,20.60
2022-08-17T20:53:09.502Z,20.57
2022-08-17T20:55:52.387Z,20.52
2022-08-17T20:58:24.921Z,20.40
2022-08-17T21:01:01.741Z,20.26
2022-08-17T21:03:49.198Z,20.41
2022-08-17T21:06:21.219Z,20.43
2022-08-17T21:09:18.047Z,20.38
2022-08-17T21:12:04.185Z,20.35
2022-08-17T21:14:59.131Z,19.98
2022-08-17T21:17:38.403Z,20.18
2022-08-17T21:20:32.719Z,20.27
2022-08-17T21:23:16.562Z,20.20
2022-08-17T21:26:01.169Z,20.21
2022-08-17T21:29:29.572Z,20.23
2022-08-17T21:32:06.283Z,20.22
2022-08-17T21:35:06.515Z,19.86
2022-08-17T21:37:46.113Z,19.39
2022-08-17T21:40:13.559Z,19.45
2022-08-17T21:42:50.706Z,19.68
2022-08-17T21:45:30.621Z,19.53
2022-08-17T21:48:16.853Z,19.68
2022-08-17T21:50:56.136Z,19.78
2022-08-17T21:53:48.863Z,19.75
2022-08-17T21:56:38.965Z,19.49
2022-08-17T21:59:21.357Z,19.50
2022-08-17T22:01:58.773Z,19.29
2022-08-17T22:04:31.247Z,19.25
2022-08-17T22:07:01.606Z,19.32
2022-08-17T22:09:33.077Z,19.11
2022-08-17T22:12:04.696Z,19.35
2022-08-17T22:14:52.867Z,19.27
2022-08-17T22:17:26.882Z,18.91
2022-08-17T22:20:17.689Z,18.99
2022-08-17T22:23:12.974Z,19.04
2022-08-17T22:26:00.274Z,19.22
2022-08-17T22:28:53.495Z,19.06
2022-08-17T22:31:49.654Z,19.05
2022-08-17T22:34:17.567Z,19.07
2022-08-17T22:36:46.086Z,19.07
2022-08-17T22:39:13.581Z,19.11
2022-08-17T22:41:54.152Z,18.89
2022-08-17T22:44:23.721Z,18.93
2022-08-17T22:46:53.665Z,18.86
2022-08-17T22:49:53.467Z,18.83
2022-08-17T22:52:21.985Z,18.86
2022-08-17T22:55:09.424Z,18.77
2022-08-17T22:58:03.658Z,18.61
2022-08-17T23:00:51.757Z,18.76
2022-08-17T23:03:23.040Z,18.50
2022-08-17T23:06:10.031Z,18.46
2022-08-17T23:08:55.219Z,18.60
2022-08-17T23:11:36.811Z,18.44
2022-08-17T23:14:15.939Z,18.40
2022-08-17T23:16:43.318Z,18.56
2022-08-17T23:19:12.919Z,18.40
2022-08-17T23:21:40.861Z,18.39
2022-08-17T23:24:09.268Z,18.45
2022-08-17T23:26:39.305Z,18.46
2022-08-17T23:29:08.087Z,18.48
2022-08-17T23:31:37.913Z,18.60
2022-08-17T23:34:10.838Z,18.46
2022-08-17T23:36:39.446Z,18.31
2022-08-17T23:39:07.832Z,18.23
2022-08-17T23:41:40.229Z,18.17
2022-08-17T23:44:08.195Z,18.27
2022-08-17T23:46:36.432Z,18.30
2022-08-17T23:49:07.000Z,18.20
2022-08-17T23:51:42.642Z,18.21
2022-08-17T23:54:25.573Z,18.08
2022-08-17T23:56:53.858Z,17.97
2022-08-17T23:59:23.867Z,18.22
